createdAt,value
2023-04-16T00:01:27.814Z,10.10
2023-04-16T00:03:55.405Z,10.05
2023-04-16T00:06:23.193Z,10.09
2023-04-16T00:08:51.482Z,10.02
2023-04-16T00:11:18.134Z,10.06
2023-04-16T00:13:44.694Z,10.04
2023-04-16T00:16:11.368Z,9.93
2023-04-16T00:18:37.899Z,9.92
2023-04-16T00:21:04.551Z,9.94
2023-04-16T00:23:31.228Z,9.83
2023-04-16T00:25:59.968Z,9.84
2023-04-16T00:28:27.667Z,9.50
2023-04-16T00:30:54.755Z,9.27
2023-04-16T00:33:21.552Z,9.13
2023-04-16T00:35:48.901Z,9.07
2023-04-16T00:38:15.785Z,8.94
2023-04-16T00:40:42.461Z,8.86
2023-04-16T00:43:09.134Z,8.95
2023-04-16T00:45:36.460Z,8.82
2023-04-16T00:48:04.481Z,8.74
2023-04-16T00:50:31.442Z,8.68
2023-04-16T00:52:58.349Z,8.62
2023-04-16T00:55:25.996Z,8.55
2023-04-16T00:57:53.197Z,8.47
2023-04-16T01:00:21.401Z,8.47
2023-04-16T01:02:48.249Z,8.51
2023-04-16T01:05:15.029Z,8.59
2023-04-16T01:07:41.588Z,8.69
2023-04-16T01:10:08.415Z,8.84
2023-04-16T01:12:34.995Z,8.93
2023-04-16T01:15:01.897Z,9.04
2023-04-16T01:17:28.564Z,9.16
2023-04-16T01:19:59.445Z,9.12
2023-04-16T01:22:27.746Z,9.14
2023-04-16T01:24:54.364Z,9.13
2023-04-16T01:27:21.178Z,9.03
2023-04-16T01:29:47.870Z,8.83
2023-04-16T01:32:19.219Z,8.91
2023-04-16T01:34:46.904Z,8.93
2023-04-16T01:37:13.799Z,8.93
2023-04-16T01:39:40.488Z,9.01
2023-04-16T01:42:08.133Z,9.04
2023-04-16T01:44:34.722Z,8.98
2023-04-16T01:47:01.436Z,9.05
2023-04-16T01:49:29.039Z,8.93
2023-04-16T01:51:55.826Z,8.88
2023-04-16T01:54:22.358Z,8.70
2023-04-16T01:56:48.989Z,8.51
2023-04-16T01:59:15.589Z,8.10
2023-04-16T02:01:42.568Z,8.23
2023-04-16T02:04:10.258Z,8.12
2023-04-16T02:06:37.737Z,8.05
2023-04-16T02:09:04.357Z,8.36
2023-04-16T02:11:31.728Z,8.36
2023-04-16T02:13:58.509Z,8.19
2023-04-16T02:16:26.420Z,8.23
2023-04-16T02:18:58.502Z,8.22
2023-04-16T02:21:27.528Z,8.37
2023-04-16T02:23:54.195Z,8.52
2023-04-16T02:26:26.628Z,8.11
2023-04-16T02:28:55.576Z,8.06
2023-04-16T02:31:28.687Z,8.18
2023-04-16T02:33:57.079Z,8.07
2023-04-16T02:36:23.787Z,7.89
2023-04-16T02:38:50.457Z,7.77
2023-04-16T02:41:17.510Z,7.87
2023-04-16T02:43:44.335Z,7.86
2023-04-16T02:46:10.991Z,7.84
2023-04-16T02:48:37.689Z,7.81
2023-04-16T02:51:04.426Z,7.77
2023-04-16T02:53:31.032Z,7.87
2023-04-16T02:55:57.678Z,7.90
2023-04-16T02:58:25.967Z,7.91
2023-04-16T03:00:53.851Z,7.88
2023-04-16T03:03:21.802Z,7.78
2023-04-16T03:05:48.785Z,7.69
2023-04-16T03:08:16.332Z,7.49
2023-04-16T03:10:43.221Z,7.56
2023-04-16T03:13:09.868Z,7.36
2023-04-16T03:15:36.639Z,7.31
2023-04-16T03:18:03.391Z,7.30
2023-04-16T03:20:30.185Z,7.21
2023-04-16T03:22:57.277Z,7.13
2023-04-16T03:25:23.968Z,7.17
2023-04-16T03:27:51.253Z,7.11
2023-04-16T03:30:18.314Z,7.16
2023-04-16T03:32:45.132Z,7.19
2023-04-16T03:35:12.742Z,7.21
2023-04-16T03:37:39.500Z,7.26
2023-04-16T03:40:07.328Z,7.19
2023-04-16T03:42:34.339Z,7.21
2023-04-16T03:45:01.191Z,7.23
2023-04-16T03:47:28.156Z,7.33
2023-04-16T03:49:58.807Z,7.29
2023-04-16T03:52:25.458Z,7.30
2023-04-16T03:54:53.255Z,7.34
2023-04-16T03:57:25.292Z,7.34
2023-04-16T03:59:55.340Z,7.26
2023-04-16T04:02:22.930Z,7.18
2023-04-16T04:04:50.035Z,7.29
2023-04-16T04:07:17.506Z,7.02
2023-04-16T04:09:44.060Z,7.18
2023-04-16T04:12:10.827Z,7.00
2023-04-16T04:14:40.149Z,7.17
2023-04-16T04:17:08.359Z,7.12
2023-04-16T04:19:34.976Z,7.26
2023-04-16T04:22:02.623Z,7.34
2023-04-16T04:24:29.452Z,7.36
2023-04-16T04:26:57.489Z,7.26
2023-04-16T04:29:24.256Z,7.18
2023-04-16T04:31:51.311Z,7.18
2023-04-16T04:34:18.080Z,7.03
2023-04-16T04:36:44.903Z,6.97
2023-04-16T04:39:13.390Z,6.88
2023-04-16T04:41:42.901Z,6.68
2023-04-16T04:44:09.473Z,6.53
2023-04-16T04:46:36.192Z,6.30
2023-04-16T04:49:02.763Z,6.50
2023-04-16T04:51:31.717Z,6.48
2023-04-16T04:53:58.620Z,6.38
2023-04-16T04:56:25.594Z,6.32
2023-04-16T04:58:52.265Z,6.29
2023-04-16T05:01:20.140Z,6.28
2023-04-16T05:03:46.886Z,6.25
2023-04-16T05:06:13.589Z,6.25
2023-04-16T05:08:40.407Z,6.14
2023-04-16T05:11:07.121Z,6.02
2023-04-16T05:13:33.747Z,6.12
2023-04-16T05:16:00.291Z,6.15
2023-04-16T05:18:26.891Z,6.19
2023-04-16T05:20:53.655Z,6.31
2023-04-16T05:23:20.295Z,6.35
2023-04-16T05:25:46.938Z,6.35
2023-04-16T05:28:13.509Z,6.47
2023-04-16T05:30:40.217Z,6.49
2023-04-16T05:33:06.911Z,6.50
2023-04-16T05:35:34.412Z,6.51
2023-04-16T05:38:01.097Z,6.50
2023-04-16T05:40:27.762Z,6.62
2023-04-16T05:42:54.347Z,6.76
2023-04-16T05:45:20.892Z,6.72
2023-04-16T05:47:47.857Z,6.69
2023-04-16T05:50:14.626Z,6.83
2023-04-16T05:52:41.143Z,6.73
2023-04-16T05:55:08.036Z,6.77
2023-04-16T05:57:34.618Z,6.67
2023-04-16T06:00:01.274Z,6.96
2023-04-16T06:02:28.095Z,6.90
2023-04-16T06:04:54.810Z,7.00
2023-04-16T06:07:21.690Z,7.14
2023-04-16T06:09:48.279Z,7.13
2023-04-16T06:12:14.959Z,7.20
2023-04-16T06:14:41.543Z,7.42
2023-04-16T06:17:08.215Z,7.52
2023-04-16T06:19:34.831Z,7.58
2023-04-16T06:22:01.429Z,7.65
2023-04-16T06:24:28.169Z,7.66
2023-04-16T06:26:54.740Z,7.89
2023-04-16T06:29:24.156Z,7.91
2023-04-16T06:31:57.312Z,8.10
2023-04-16T06:34:24.015Z,8.15
2023-04-16T06:36:50.662Z,8.26
2023-04-16T06:39:17.360Z,8.37
2023-04-16T06:41:43.979Z,8.44
2023-04-16T06:44:10.702Z,8.60
2023-04-16T06:46:37.360Z,8.64
2023-04-16T06:49:04.040Z,8.84
2023-04-16T06:51:30.725Z,8.97
2023-04-16T06:53:57.370Z,9.14
2023-04-16T06:56:23.931Z,9.43
2023-04-16T06:58:51.523Z,9.68
2023-04-16T07:01:18.737Z,9.93
2023-04-16T07:03:45.648Z,10.25
2023-04-16T07:06:12.254Z,10.77
2023-04-16T07:08:38.830Z,11.21
2023-04-16T07:11:05.577Z,11.70
2023-04-16T07:13:32.189Z,12.07
2023-04-16T07:15:58.735Z,12.73
2023-04-16T07:18:25.660Z,13.20
2023-04-16T07:20:52.302Z,13.72
2023-04-16T07:23:18.962Z,14.17
2023-04-16T07:25:46.090Z,14.66
2023-04-16T07:28:12.912Z,15.03
2023-04-16T07:30:39.515Z,15.47
2023-04-16T07:33:06.243Z,15.91
2023-04-16T07:35:32.886Z,16.24
2023-04-16T07:37:59.582Z,16.37
2023-04-16T07:40:26.660Z,16.78
2023-04-16T07:42:53.326Z,16.62
2023-04-16T07:45:19.937Z,16.16
2023-04-16T07:47:46.655Z,16.77
2023-04-16T07:50:13.432Z,17.25
2023-04-16T07:52:42.393Z,17.70
2023-04-16T07:55:09.318Z,18.12
2023-04-16T07:57:36.470Z,18.32
2023-04-16T08:00:05.023Z,18.77
2023-04-16T08:02:39.759Z,19.14
2023-04-16T08:05:07.278Z,19.47
2023-04-16T08:07:34.790Z,19.35
2023-04-16T08:10:02.157Z,19.71
2023-04-16T08:12:29.505Z,19.46
2023-04-16T08:14:56.305Z,18.96
2023-04-16T08:17:23.017Z,19.09
2023-04-16T08:19:49.670Z,18.78
2023-04-16T08:22:16.859Z,19.06
2023-04-16T08:24:43.420Z,19.16
2023-04-16T08:27:18.579Z,19.23
2023-04-16T08:29:47.534Z,19.92
2023-04-16T08:32:14.201Z,20.38
2023-04-16T08:34:41.956Z,20.70
2023-04-16T08:37:09.079Z,20.27
2023-04-16T08:39:35.965Z,20.26
2023-04-16T08:42:05.632Z,20.59
2023-04-16T08:44:34.868Z,19.84
2023-04-16T08:47:02.361Z,19.28
2023-04-16T08:49:30.391Z,19.70
2023-04-16T08:51:57.407Z,20.07
2023-04-16T08:54:24.001Z,20.12
2023-04-16T08:56:51.554Z,19.43
2023-04-16T08:59:19.092Z,19.27
2023-04-16T09:01:46.842Z,19.59
2023-04-16T09:04:15.833Z,19.60
2023-04-16T09:06:43.317Z,19.84
2023-04-16T09:09:12.571Z,19.42
2023-04-16T09:11:39.822Z,19.33
2023-04-16T09:14:09.843Z,19.54
2023-04-16T09:16:36.969Z,19.69
2023-04-16T09:19:03.951Z,20.12
2023-04-16T09:21:31.043Z,20.44
2023-04-16T09:23:58.486Z,21.17
2023-04-16T09:26:25.938Z,21.02
2023-04-16T09:28:52.624Z,20.94
2023-04-16T09:31:19.592Z,21.43
2023-04-16T09:34:02.581Z,22.06
2023-04-16T09:36:29.719Z,21.40
2023-04-16T09:38:57.775Z,21.48
2023-04-16T09:41:29.097Z,22.15
2023-04-16T09:43:59.794Z,21.51
2023-04-16T09:46:36.284Z,22.06
2023-04-16T09:49:16.229Z,21.55
2023-04-16T09:51:44.317Z,21.98
2023-04-16T09:54:11.256Z,22.68
2023-04-16T09:56:45.872Z,22.11
2023-04-16T09:59:19.591Z,22.45
2023-04-16T10:01:59.740Z,22.85
2023-04-16T10:04:50.082Z,23.31
2023-04-16T10:07:17.696Z,23.70
2023-04-16T10:09:44.425Z,23.66
2023-04-16T10:12:12.819Z,24.16
2023-04-16T10:14:40.126Z,23.26
2023-04-16T10:17:07.868Z,24.12
2023-04-16T10:19:35.356Z,23.15
2023-04-16T10:22:03.249Z,24.50
2023-04-16T10:24:31.229Z,25.40
2023-04-16T10:26:58.492Z,24.70
2023-04-16T10:29:27.180Z,25.07
2023-04-16T10:31:55.588Z,24.12
2023-04-16T10:34:23.429Z,22.83
2023-04-16T10:36:52.947Z,23.76
2023-04-16T10:39:21.851Z,24.35
2023-04-16T10:41:49.432Z,25.65
2023-04-16T10:44:18.450Z,26.03
2023-04-16T10:46:50.886Z,25.97
2023-04-16T10:49:19.411Z,25.81
2023-04-16T10:51:57.644Z,26.97
2023-04-16T10:54:27.954Z,26.67
2023-04-16T10:56:57.793Z,26.09
2023-04-16T10:59:25.764Z,25.79
2023-04-16T11:01:55.776Z,26.97
2023-04-16T11:04:25.695Z,27.65
2023-04-16T11:07:13.989Z,26.87
2023-04-16T11:10:05.271Z,27.56
2023-04-16T11:12:38.063Z,26.79
2023-04-16T11:15:09.144Z,27.89
2023-04-16T11:17:48.038Z,29.10
2023-04-16T11:20:19.044Z,28.76
2023-04-16T11:22:50.964Z,29.68
2023-04-16T11:25:26.080Z,30.15
2023-04-16T11:27:53.430Z,30.81
2023-04-16T11:30:31.933Z,29.62
2023-04-16T11:32:58.667Z,27.92
2023-04-16T11:35:25.512Z,28.22
2023-04-16T11:37:56.518Z,27.92
2023-04-16T11:40:23.510Z,28.92
2023-04-16T11:42:50.264Z,29.48
2023-04-16T11:45:19.131Z,28.80
2023-04-16T11:47:47.783Z,30.05
2023-04-16T11:50:28.505Z,29.41
2023-04-16T11:52:57.627Z,30.77
2023-04-16T11:55:24.634Z,29.46
2023-04-16T11:57:52.164Z,26.53
2023-04-16T12:00:24.404Z,27.36
2023-04-16T12:02:53.708Z,28.93
2023-04-16T12:05:34.002Z,28.68
2023-04-16T12:08:03.589Z,27.19
2023-04-16T12:10:34.871Z,29.27
2023-04-16T12:13:12.702Z,29.80
2023-04-16T12:16:21.250Z,30.70
2023-04-16T12:19:02.970Z,31.59
2023-04-16T12:21:39.897Z,32.56
2023-04-16T12:24:07.968Z,33.51
2023-04-16T12:26:42.867Z,34.09
2023-04-16T12:29:27.532Z,34.49
2023-04-16T12:31:54.625Z,34.75
2023-04-16T12:34:21.823Z,32.89
2023-04-16T12:37:11.017Z,33.09
2023-04-16T12:39:37.605Z,32.98
2023-04-16T12:42:06.361Z,33.77
2023-04-16T12:44:33.080Z,34.03
2023-04-16T12:46:59.661Z,33.02
2023-04-16T12:49:26.300Z,33.31
2023-04-16T12:51:52.971Z,33.97
2023-04-16T12:54:19.598Z,34.35
2023-04-16T12:56:46.549Z,32.64
2023-04-16T12:59:13.136Z,29.81
2023-04-16T13:01:40.013Z,30.82
2023-04-16T13:04:07.632Z,29.89
2023-04-16T13:06:36.682Z,32.03
2023-04-16T13:09:04.254Z,31.12
2023-04-16T13:11:30.759Z,33.05
2023-04-16T13:13:57.290Z,33.60
2023-04-16T13:16:24.215Z,33.90
2023-04-16T13:18:51.018Z,34.82
2023-04-16T13:21:17.609Z,35.49
2023-04-16T13:23:44.286Z,35.84
2023-04-16T13:26:13.030Z,36.64
2023-04-16T13:28:39.756Z,37.07
2023-04-16T13:31:06.429Z,36.63
2023-04-16T13:33:33.055Z,36.97
2023-04-16T13:35:59.644Z,36.21
2023-04-16T13:38:26.504Z,37.46
2023-04-16T13:40:53.177Z,37.23
2023-04-16T13:43:19.822Z,36.40
2023-04-16T13:45:46.453Z,37.38
2023-04-16T13:48:13.090Z,37.25
2023-04-16T13:50:39.733Z,37.48
2023-04-16T13:53:06.420Z,36.91
2023-04-16T13:55:33.156Z,37.02
2023-04-16T13:58:00.138Z,37.56
2023-04-16T14:00:27.284Z,37.02
2023-04-16T14:02:54.026Z,37.70
2023-04-16T14:05:20.791Z,37.04
2023-04-16T14:07:47.404Z,36.82
2023-04-16T14:10:14.336Z,37.27
2023-04-16T14:12:41.290Z,37.02
2023-04-16T14:15:09.660Z,36.61
2023-04-16T14:17:39.383Z,34.48
2023-04-16T14:20:06.861Z,35.15
2023-04-16T14:22:33.687Z,35.96
2023-04-16T14:25:01.094Z,35.47
2023-04-16T14:27:28.772Z,36.30
2023-04-16T14:29:55.362Z,38.00
2023-04-16T14:32:22.082Z,38.47
2023-04-16T14:34:48.689Z,37.74
2023-04-16T14:37:16.758Z,37.87
2023-04-16T14:39:43.631Z,37.03
2023-04-16T14:42:10.678Z,36.03
2023-04-16T14:44:37.434Z,34.90
2023-04-16T14:47:04.149Z,35.18
2023-04-16T14:49:30.689Z,35.31
2023-04-16T14:51:57.600Z,33.99
2023-04-16T14:54:24.264Z,33.58
2023-04-16T14:56:51.097Z,34.25
2023-04-16T14:59:17.779Z,34.01
2023-04-16T15:01:46.294Z,34.54
2023-04-16T15:04:13.109Z,34.70
2023-04-16T15:06:39.820Z,33.99
2023-04-16T15:09:07.516Z,33.76
2023-04-16T15:11:34.241Z,33.56
2023-04-16T15:14:01.280Z,32.92
2023-04-16T15:16:27.965Z,31.88
2023-04-16T15:18:54.611Z,30.71
2023-04-16T15:21:21.145Z,29.41
2023-04-16T15:23:47.827Z,28.92
2023-04-16T15:26:14.534Z,28.92
2023-04-16T15:28:41.317Z,29.31
2023-04-16T15:31:08.497Z,29.87
2023-04-16T15:33:35.263Z,30.25
2023-04-16T15:36:01.984Z,30.21
2023-04-16T15:38:30.638Z,30.89
2023-04-16T15:41:00.704Z,31.00
2023-04-16T15:43:28.931Z,30.49
2023-04-16T15:45:56.377Z,29.03
2023-04-16T15:48:23.891Z,28.67
2023-04-16T15:50:51.298Z,28.34
2023-04-16T15:53:18.152Z,28.86
2023-04-16T15:55:44.907Z,29.05
2023-04-16T15:58:12.596Z,28.74
2023-04-16T16:00:39.198Z,27.82
2023-04-16T16:03:06.067Z,26.61
2023-04-16T16:05:32.887Z,25.55
2023-04-16T16:08:01.717Z,24.79
2023-04-16T16:10:28.487Z,24.96
2023-04-16T16:12:57.074Z,25.12
2023-04-16T16:15:23.718Z,24.55
2023-04-16T16:17:52.767Z,24.28
2023-04-16T16:20:19.713Z,24.24
2023-04-16T16:22:48.255Z,23.92
2023-04-16T16:25:14.930Z,23.53
2023-04-16T16:27:42.131Z,23.34
2023-04-16T16:30:09.078Z,23.37
2023-04-16T16:32:35.965Z,23.41
2023-04-16T16:35:02.772Z,23.75
2023-04-16T16:37:29.372Z,23.86
2023-04-16T16:39:55.938Z,24.18
2023-04-16T16:42:22.492Z,24.35
2023-04-16T16:44:49.190Z,24.28
2023-04-16T16:47:15.823Z,24.41
2023-04-16T16:49:42.368Z,23.91
2023-04-16T16:52:09.052Z,23.96
2023-04-16T16:54:36.041Z,23.94
2023-04-16T16:57:03.265Z,23.48
2023-04-16T16:59:29.783Z,23.21
2023-04-16T17:01:56.561Z,23.36
2023-04-16T17:04:23.688Z,22.89
2023-04-16T17:06:50.846Z,22.86
2023-04-16T17:09:17.965Z,22.99
2023-04-16T17:11:44.792Z,22.59
2023-04-16T17:14:11.431Z,22.48
2023-04-16T17:16:38.143Z,22.41
2023-04-16T17:19:04.789Z,22.43
2023-04-16T17:21:34.909Z,21.96
2023-04-16T17:24:01.458Z,22.08
2023-04-16T17:26:28.035Z,22.18
2023-04-16T17:28:56.657Z,22.09
2023-04-16T17:31:25.007Z,21.76
2023-04-16T17:33:53.710Z,21.51
2023-04-16T17:36:22.807Z,21.18
2023-04-16T17:38:50.612Z,21.05
2023-04-16T17:41:19.573Z,20.97
2023-04-16T17:43:50.245Z,20.98
2023-04-16T17:46:17.102Z,21.19
2023-04-16T17:48:48.738Z,20.84
2023-04-16T17:51:16.464Z,20.91
2023-04-16T17:53:43.440Z,20.95
2023-04-16T17:56:11.025Z,21.04
2023-04-16T17:58:37.701Z,21.04
2023-04-16T18:01:04.749Z,20.86
2023-04-16T18:03:32.888Z,20.70
2023-04-16T18:06:00.094Z,20.55
2023-04-16T18:08:27.640Z,20.32
2023-04-16T18:10:55.341Z,20.22
2023-04-16T18:13:22.053Z,20.24
2023-04-16T18:15:48.718Z,20.06
2023-04-16T18:18:15.625Z,19.93
2023-04-16T18:20:42.300Z,20.01
2023-04-16T18:23:08.883Z,20.00
2023-04-16T18:25:35.880Z,19.98
2023-04-16T18:28:03.827Z,19.95
2023-04-16T18:30:30.680Z,20.00
2023-04-16T18:33:16.557Z,19.90
2023-04-16T18:35:44.074Z,19.89
2023-04-16T18:38:10.921Z,19.95
2023-04-16T18:40:37.552Z,19.90
2023-04-16T18:43:04.269Z,20.01
2023-04-16T18:45:34.108Z,20.12
2023-04-16T18:48:03.496Z,20.10
2023-04-16T18:50:30.156Z,20.18
2023-04-16T18:52:56.868Z,20.28
2023-04-16T18:55:23.752Z,20.20
2023-04-16T18:57:50.479Z,20.21
2023-04-16T19:00:17.220Z,20.29
2023-04-16T19:02:43.901Z,20.09
2023-04-16T19:05:10.764Z,19.83
2023-04-16T19:07:37.863Z,19.88
2023-04-16T19:10:05.541Z,19.89
2023-04-16T19:12:32.361Z,19.74
2023-04-16T19:14:59.326Z,19.92
2023-04-16T19:17:26.639Z,19.77
2023-04-16T19:19:53.532Z,19.83
2023-04-16T19:22:20.107Z,19.71
2023-04-16T19:24:46.921Z,19.63
2023-04-16T19:27:13.575Z,19.64
2023-04-16T19:29:42.741Z,19.61
2023-04-16T19:32:09.468Z,19.60
2023-04-16T19:34:36.072Z,19.53
2023-04-16T19:37:02.688Z,19.41
2023-04-16T19:39:29.290Z,19.43
2023-04-16T19:41:56.237Z,19.37
2023-04-16T19:44:23.242Z,19.34
2023-04-16T19:46:49.968Z,19.34
2023-04-16T19:49:16.631Z,19.35
2023-04-16T19:51:43.168Z,19.33
2023-04-16T19:54:09.819Z,19.24
2023-04-16T19:56:36.664Z,19.24
2023-04-16T19:59:03.378Z,19.17
2023-04-16T20:01:33.103Z,19.13
2023-04-16T20:04:00.726Z,19.11
2023-04-16T20:06:27.702Z,19.08
2023-04-16T20:08:54.379Z,19.04
2023-04-16T20:11:21.338Z,19.04
2023-04-16T20:13:48.650Z,19.02
2023-04-16T20:16:15.586Z,18.93
2023-04-16T20:18:42.598Z,18.92
2023-04-16T20:21:10.477Z,18.95
2023-04-16T20:23:37.197Z,18.82
2023-04-16T20:26:04.418Z,18.82
2023-04-16T20:28:31.118Z,18.76
2023-04-16T20:30:57.957Z,18.72
2023-04-16T20:33:24.619Z,18.64
2023-04-16T20:35:52.173Z,18.62
2023-04-16T20:38:23.784Z,18.49
2023-04-16T20:41:06.376Z,18.58
2023-04-16T20:43:38.260Z,18.40
2023-04-16T20:46:05.161Z,18.29
2023-04-16T20:48:31.938Z,18.37
2023-04-16T20:51:03.703Z,18.36
2023-04-16T20:53:33.654Z,18.31
2023-04-16T20:56:03.387Z,18.20
2023-04-16T20:58:30.167Z,18.23
2023-04-16T21:00:57.820Z,18.13
2023-04-16T21:03:25.032Z,17.99
2023-04-16T21:05:54.281Z,18.00
2023-04-16T21:08:22.656Z,17.96
2023-04-16T21:10:50.470Z,17.91
2023-04-16T21:13:17.156Z,17.92
2023-04-16T21:15:44.818Z,17.88
2023-04-16T21:18:11.755Z,17.81
2023-04-16T21:20:39.156Z,17.75
2023-04-16T21:23:06.469Z,17.73
2023-04-16T21:25:36.006Z,17.67
2023-04-16T21:28:02.809Z,17.40
2023-04-16T21:30:29.447Z,17.48
2023-04-16T21:32:56.206Z,17.31
2023-04-16T21:35:22.835Z,17.30
2023-04-16T21:37:49.493Z,17.29
2023-04-16T21:40:16.291Z,17.34
2023-04-16T21:42:42.884Z,17.35
2023-04-16T21:45:10.411Z,17.33
2023-04-16T21:47:37.503Z,17.33
2023-04-16T21:50:04.622Z,17.20
2023-04-16T21:52:32.860Z,17.03
2023-04-16T21:55:00.259Z,17.24
2023-04-16T21:57:26.898Z,17.14
2023-04-16T21:59:53.549Z,17.24
2023-04-16T22:02:20.458Z,17.18
2023-04-16T22:04:47.316Z,17.05
2023-04-16T22:07:16.729Z,17.07
2023-04-16T22:09:43.691Z,17.06
2023-04-16T22:12:10.439Z,16.92
2023-04-16T22:14:42.126Z,16.95
2023-04-16T22:17:12.955Z,16.95
2023-04-16T22:19:39.617Z,16.94
2023-04-16T22:22:06.225Z,16.92
2023-04-16T22:24:33.169Z,16.73
2023-04-16T22:27:00.124Z,16.63
2023-04-16T22:29:26.841Z,16.45
2023-04-16T22:31:53.432Z,16.45
2023-04-16T22:34:20.233Z,16.42
2023-04-16T22:36:47.514Z,16.33
2023-04-16T22:39:14.582Z,16.29
2023-04-16T22:41:41.460Z,16.16
2023-04-16T22:44:08.094Z,16.08
2023-04-16T22:46:35.033Z,16.00
2023-04-16T22:49:01.852Z,15.88
2023-04-16T22:51:29.337Z,15.88
2023-04-16T22:53:56.322Z,15.70
2023-04-16T22:56:28.424Z,15.59
2023-04-16T22:58:54.958Z,15.55
2023-04-16T23:01:21.920Z,15.54
2023-04-16T23:03:48.927Z,15.51
2023-04-16T23:06:15.911Z,15.44
2023-04-16T23:08:42.481Z,15.24
2023-04-16T23:11:09.099Z,15.18
2023-04-16T23:13:36.201Z,15.09
2023-04-16T23:16:02.950Z,15.08
2023-04-16T23:18:29.633Z,15.01
2023-04-16T23:20:56.426Z,14.92
2023-04-16T23:23:23.001Z,14.94
2023-04-16T23:25:53.330Z,14.85
2023-04-16T23:28:20.590Z,14.79
2023-04-16T23:30:47.175Z,14.75
2023-04-16T23:33:13.800Z,14.79
2023-04-16T23:35:40.500Z,14.75
2023-04-16T23:38:07.251Z,14.74
2023-04-16T23:40:33.861Z,14.74
2023-04-16T23:43:00.429Z,14.72
2023-04-16T23:45:27.074Z,14.59
2023-04-16T23:47:53.719Z,14.52
2023-04-16T23:50:20.381Z,14.51
2023-04-16T23:52:47.014Z,14.51
2023-04-16T23:55:13.616Z,14.47
2023-04-16T23:57:40.297Z,14.43
